createdAt,value
2023-04-21T00:01:59.139Z,5.55
2023-04-21T00:04:25.960Z,5.49
2023-04-21T00:06:53.650Z,5.42
2023-04-21T00:09:21.274Z,5.40
2023-04-21T00:11:47.962Z,5.37
2023-04-21T00:14:14.529Z,5.32
2023-04-21T00:16:41.305Z,5.26
2023-04-21T00:19:08.678Z,5.20
2023-04-21T00:21:36.257Z,5.13
2023-04-21T00:24:03.142Z,5.13
2023-04-21T00:26:29.749Z,5.10
2023-04-21T00:28:56.306Z,5.07
2023-04-21T00:31:22.910Z,5.02
2023-04-21T00:33:49.463Z,4.99
2023-04-21T00:36:16.062Z,4.94
2023-04-21T00:38:43.091Z,4.87
2023-04-21T00:41:09.637Z,4.84
2023-04-21T00:43:36.703Z,4.81
2023-04-21T00:46:04.578Z,4.81
2023-04-21T00:48:31.200Z,4.74
2023-04-21T00:50:57.875Z,4.71
2023-04-21T00:53:24.473Z,4.66
2023-04-21T00:55:51.616Z,4.63
2023-04-21T00:58:18.157Z,4.62
2023-04-21T01:00:44.757Z,4.59
2023-04-21T01:03:11.607Z,4.56
2023-04-21T01:05:38.824Z,4.55
2023-04-21T01:08:10.342Z,4.50
2023-04-21T01:10:36.940Z,4.47
2023-04-21T01:13:03.410Z,4.44
2023-04-21T01:15:31.325Z,4.42
2023-04-21T01:17:58.336Z,4.38
2023-04-21T01:20:24.998Z,4.33
2023-04-21T01:22:51.683Z,4.32
2023-04-21T01:25:18.844Z,4.29
2023-04-21T01:27:45.464Z,4.21
2023-04-21T01:30:12.165Z,4.15
2023-04-21T01:32:38.902Z,4.08
2023-04-21T01:35:06.617Z,4.03
2023-04-21T01:37:34.066Z,4.02
2023-04-21T01:40:04.964Z,4.03
2023-04-21T01:42:32.948Z,4.01
2023-04-21T01:45:00.052Z,3.97
2023-04-21T01:47:27.031Z,3.93
2023-04-21T01:49:53.717Z,3.91
2023-04-21T01:52:20.957Z,3.90
2023-04-21T01:54:47.584Z,3.89
2023-04-21T01:57:14.320Z,3.87
2023-04-21T01:59:40.944Z,3.88
2023-04-21T02:02:07.815Z,3.85
2023-04-21T02:04:52.723Z,3.87
2023-04-21T02:07:19.250Z,3.92
2023-04-21T02:09:46.174Z,3.96
2023-04-21T02:12:17.990Z,3.97
2023-04-21T02:14:46.174Z,3.96
2023-04-21T02:17:13.400Z,3.98
2023-04-21T02:19:40.153Z,4.05
2023-04-21T02:22:12.950Z,4.10
2023-04-21T02:24:39.929Z,4.14
2023-04-21T02:27:06.482Z,4.15
2023-04-21T02:29:33.007Z,4.16
2023-04-21T02:32:10.822Z,4.18
2023-04-21T02:34:44.632Z,4.15
2023-04-21T02:37:14.210Z,4.18
2023-04-21T02:39:41.064Z,4.23
2023-04-21T02:42:07.576Z,4.28
2023-04-21T02:44:34.160Z,4.30
2023-04-21T02:47:01.085Z,4.36
2023-04-21T02:49:27.722Z,4.38
2023-04-21T02:51:55.182Z,4.44
2023-04-21T02:54:21.722Z,4.47
2023-04-21T02:57:04.619Z,4.46
2023-04-21T03:03:51.445Z,4.45
2023-04-21T03:07:23.913Z,4.47
2023-04-21T03:09:50.845Z,4.54
2023-04-21T03:12:29.991Z,4.59
2023-04-21T03:14:56.871Z,4.61
2023-04-21T03:17:23.493Z,4.63
2023-04-21T03:19:50.019Z,4.69
2023-04-21T03:22:16.533Z,4.73
2023-04-21T03:24:43.155Z,4.77
2023-04-21T03:27:11.036Z,4.82
2023-04-21T03:29:37.841Z,4.85
2023-04-21T03:32:04.526Z,4.90
2023-04-21T03:34:31.050Z,4.93
2023-04-21T03:36:57.604Z,4.95
2023-04-21T03:39:24.631Z,4.93
2023-04-21T03:41:51.423Z,4.94
2023-04-21T03:44:17.946Z,4.95
2023-04-21T03:46:44.520Z,4.95
2023-04-21T03:49:13.860Z,4.91
2023-04-21T03:51:44.782Z,4.90
2023-04-21T03:54:11.375Z,4.87
2023-04-21T03:56:37.953Z,4.89
2023-04-21T03:59:04.736Z,4.91
2023-04-21T04:01:31.204Z,4.90
2023-04-21T04:03:57.876Z,4.91
2023-04-21T04:06:24.688Z,4.91
2023-04-21T04:08:51.270Z,4.92
2023-04-21T04:11:17.803Z,4.93
2023-04-21T04:13:44.475Z,4.92
2023-04-21T04:16:11.046Z,4.93
2023-04-21T04:18:37.664Z,4.98
2023-04-21T04:21:09.509Z,4.99
2023-04-21T04:23:36.593Z,5.02
2023-04-21T04:26:05.538Z,5.06
2023-04-21T04:28:32.176Z,5.09
2023-04-21T04:31:00.772Z,5.16
2023-04-21T04:33:27.414Z,5.19
2023-04-21T04:35:54.639Z,5.19
2023-04-21T04:38:22.954Z,5.22
2023-04-21T04:40:57.726Z,5.24
2023-04-21T04:43:25.424Z,5.28
2023-04-21T04:45:52.041Z,5.33
2023-04-21T04:48:18.691Z,5.37
2023-04-21T04:50:48.960Z,5.41
2023-04-21T04:53:15.879Z,5.44
2023-04-21T04:55:42.370Z,5.50
2023-04-21T04:58:08.927Z,5.55
2023-04-21T05:00:36.993Z,5.58
2023-04-21T05:03:03.682Z,5.68
2023-04-21T05:05:30.666Z,5.77
2023-04-21T05:07:57.422Z,5.81
2023-04-21T05:10:24.090Z,5.86
2023-04-21T05:12:50.604Z,5.91
2023-04-21T05:15:17.917Z,5.95
2023-04-21T05:17:44.482Z,5.97
2023-04-21T05:20:11.466Z,6.01
2023-04-21T05:22:39.027Z,6.03
2023-04-21T05:25:12.156Z,6.02
2023-04-21T05:38:27.340Z,6.32
2023-04-21T05:40:56.700Z,6.41
2023-04-21T05:43:23.290Z,6.54
2023-04-21T05:45:49.940Z,6.74
2023-04-21T05:48:16.605Z,6.90
2023-04-21T05:50:43.266Z,7.04
2023-04-21T05:53:09.937Z,7.21
2023-04-21T05:55:37.071Z,7.35
2023-04-21T05:58:04.210Z,7.56
2023-04-21T06:03:38.429Z,8.04
2023-04-21T06:06:06.464Z,8.26
2023-04-21T06:08:33.392Z,8.49
2023-04-21T06:10:59.908Z,8.70
2023-04-21T06:13:27.784Z,8.88
2023-04-21T06:15:55.111Z,9.06
2023-04-21T06:18:22.177Z,9.17
2023-04-21T06:20:53.118Z,9.29
2023-04-21T06:23:19.935Z,9.42
2023-04-21T06:25:46.608Z,9.44
2023-04-21T06:28:13.365Z,9.54
2023-04-21T06:30:39.986Z,9.76
2023-04-21T06:33:06.878Z,10.06
2023-04-21T06:35:33.523Z,10.31
2023-04-21T06:38:00.035Z,10.59
2023-04-21T06:40:26.572Z,10.87
2023-04-21T06:42:53.074Z,11.22
2023-04-21T06:45:19.751Z,11.27
2023-04-21T06:47:46.876Z,11.39
2023-04-21T06:50:13.410Z,11.38
2023-04-21T06:52:39.916Z,11.54
2023-04-21T06:55:06.930Z,11.44
2023-04-21T06:57:33.482Z,11.41
2023-04-21T07:00:00.105Z,11.46
2023-04-21T07:02:26.692Z,11.49
2023-04-21T07:04:53.316Z,11.85
2023-04-21T07:07:19.902Z,12.05
2023-04-21T07:09:48.206Z,12.40
2023-04-21T07:12:14.692Z,12.70
2023-04-21T07:14:41.424Z,13.43
2023-04-21T07:17:08.030Z,13.92
2023-04-21T07:19:34.732Z,14.52
2023-04-21T07:22:01.240Z,15.07
2023-04-21T07:24:28.622Z,15.44
2023-04-21T07:26:55.122Z,15.84
2023-04-21T07:29:21.813Z,16.39
2023-04-21T07:31:48.383Z,17.12
2023-04-21T07:34:15.391Z,17.57
2023-04-21T07:36:41.943Z,17.29
2023-04-21T07:39:08.487Z,17.61
2023-04-21T07:41:34.953Z,17.38
2023-04-21T07:44:01.500Z,18.66
2023-04-21T07:46:31.609Z,18.88
2023-04-21T07:49:00.955Z,18.17
2023-04-21T07:51:29.646Z,18.61
2023-04-21T07:53:56.328Z,19.06
2023-04-21T07:56:23.037Z,19.49
2023-04-21T07:58:49.831Z,19.84
2023-04-21T08:01:16.305Z,19.77
2023-04-21T08:03:43.048Z,20.22
2023-04-21T08:06:09.859Z,20.31
2023-04-21T08:08:36.770Z,19.88
2023-04-21T08:11:03.293Z,19.84
2023-04-21T08:13:29.857Z,20.44
2023-04-21T08:15:56.516Z,21.23
2023-04-21T08:18:23.667Z,21.14
2023-04-21T08:20:50.394Z,22.15
2023-04-21T08:23:17.051Z,22.83
2023-04-21T08:25:43.686Z,22.47
2023-04-21T08:28:10.221Z,21.08
2023-04-21T08:30:36.790Z,20.56
2023-04-21T08:33:03.502Z,20.39
2023-04-21T08:35:30.360Z,20.68
2023-04-21T08:37:56.896Z,21.45
2023-04-21T08:40:33.972Z,22.29
2023-04-21T08:43:00.669Z,22.88
2023-04-21T08:45:28.272Z,22.94
2023-04-21T08:47:56.103Z,23.99
2023-04-21T08:50:27.041Z,23.90
2023-04-21T08:52:54.809Z,25.30
2023-04-21T08:55:26.392Z,25.09
2023-04-21T08:57:53.150Z,26.10
2023-04-21T09:00:20.017Z,28.23
2023-04-21T09:03:01.468Z,28.22
2023-04-21T09:05:30.880Z,28.69
2023-04-21T09:08:16.565Z,28.87
2023-04-21T09:10:48.291Z,30.37
2023-04-21T09:13:15.911Z,30.54
2023-04-21T09:15:50.883Z,31.44
2023-04-21T09:18:19.875Z,31.50
2023-04-21T09:20:47.124Z,31.34
2023-04-21T09:23:13.832Z,32.80
2023-04-21T09:25:41.978Z,32.87
2023-04-21T09:28:13.904Z,32.51
2023-04-21T09:30:42.480Z,31.98
2023-04-21T09:33:27.799Z,32.26
2023-04-21T09:36:01.195Z,32.61
2023-04-21T09:38:27.701Z,33.45
2023-04-21T09:40:58.918Z,33.90
2023-04-21T09:43:26.079Z,34.72
2023-04-21T09:45:54.576Z,35.12
2023-04-21T09:48:23.247Z,35.31
2023-04-21T09:51:22.922Z,33.98
2023-04-21T09:53:39.589Z,32.93
2023-04-21T09:56:11.656Z,35.06
2023-04-21T09:58:46.666Z,34.28
2023-04-21T10:01:15.024Z,33.71
2023-04-21T10:03:43.967Z,35.25
2023-04-21T10:06:11.953Z,35.30
2023-04-21T10:08:39.052Z,36.75
2023-04-21T10:11:06.918Z,35.18
2023-04-21T10:13:34.112Z,33.73
2023-04-21T10:16:08.913Z,35.03
2023-04-21T10:18:43.436Z,34.21
2023-04-21T10:21:21.207Z,34.22
2023-04-21T10:23:49.196Z,35.35
2023-04-21T10:26:25.312Z,35.13
2023-04-21T10:29:01.738Z,36.61
2023-04-21T10:31:51.297Z,37.09
2023-04-21T10:34:28.713Z,35.90
2023-04-21T10:36:55.208Z,36.52
2023-04-21T10:39:31.752Z,36.85
2023-04-21T10:42:23.125Z,36.10
2023-04-21T10:44:56.321Z,35.47
2023-04-21T10:47:37.191Z,32.93
2023-04-21T10:50:23.069Z,32.39
2023-04-21T10:52:59.474Z,32.78
2023-04-21T10:55:27.898Z,34.25
2023-04-21T10:57:55.009Z,34.53
2023-04-21T11:00:24.121Z,34.35
2023-04-21T11:02:59.423Z,33.48
2023-04-21T11:05:38.280Z,31.51
2023-04-21T11:08:12.938Z,31.57
2023-04-21T11:10:48.872Z,30.35
2023-04-21T11:13:15.573Z,29.21
2023-04-21T11:15:42.256Z,30.06
2023-04-21T11:18:09.780Z,29.65
2023-04-21T11:20:41.888Z,29.99
2023-04-21T11:23:08.390Z,31.44
2023-04-21T11:25:34.949Z,30.65
2023-04-21T11:28:01.428Z,31.10
2023-04-21T11:30:34.899Z,30.37
2023-04-21T11:33:01.793Z,28.33
2023-04-21T11:35:28.468Z,27.60
2023-04-21T11:37:55.925Z,27.66
2023-04-21T11:40:22.511Z,28.24
2023-04-21T11:42:49.256Z,28.81
2023-04-21T11:45:22.247Z,27.79
2023-04-21T11:47:49.727Z,26.66
2023-04-21T11:50:34.329Z,28.52
2023-04-21T11:53:02.592Z,31.13
2023-04-21T11:55:29.170Z,31.64
2023-04-21T11:57:57.781Z,34.26
2023-04-21T12:00:24.408Z,35.25
2023-04-21T12:02:57.543Z,35.57
2023-04-21T12:05:24.364Z,37.60
2023-04-21T12:07:52.310Z,37.09
2023-04-21T12:10:20.869Z,34.89
2023-04-21T12:12:47.999Z,36.09
2023-04-21T12:15:23.108Z,36.31
2023-04-21T12:17:55.503Z,37.32
2023-04-21T12:20:25.163Z,35.74
2023-04-21T12:22:52.435Z,34.50
2023-04-21T12:25:19.218Z,33.00
2023-04-21T12:27:49.639Z,34.85
2023-04-21T12:30:16.485Z,35.68
2023-04-21T12:32:43.108Z,36.73
2023-04-21T12:35:10.568Z,37.80
2023-04-21T12:37:37.403Z,37.60
2023-04-21T12:40:05.217Z,36.62
2023-04-21T12:42:32.122Z,37.36
2023-04-21T12:44:58.662Z,37.42
2023-04-21T12:47:25.390Z,37.17
2023-04-21T12:49:51.942Z,36.31
2023-04-21T12:52:18.532Z,36.52
2023-04-21T12:54:45.279Z,35.69
2023-04-21T12:57:11.907Z,34.28
2023-04-21T12:59:38.525Z,35.76
2023-04-21T13:02:05.175Z,35.40
2023-04-21T13:04:32.543Z,36.11
2023-04-21T13:06:59.394Z,34.56
2023-04-21T13:09:26.076Z,35.55
2023-04-21T13:11:52.541Z,35.14
2023-04-21T13:14:19.109Z,35.28
2023-04-21T13:16:45.833Z,32.32
2023-04-21T13:19:12.422Z,29.26
2023-04-21T13:21:38.977Z,26.62
2023-04-21T13:24:06.000Z,25.98
2023-04-21T13:26:35.819Z,24.96
2023-04-21T13:29:03.567Z,24.18
2023-04-21T13:31:30.516Z,24.17
2023-04-21T13:33:57.107Z,23.60
2023-04-21T13:36:23.690Z,23.80
2023-04-21T13:38:51.091Z,23.57
2023-04-21T13:41:17.630Z,23.14
2023-04-21T13:43:44.109Z,22.98
2023-04-21T13:46:10.876Z,22.51
2023-04-21T13:48:37.418Z,22.12
2023-04-21T13:51:04.361Z,21.75
2023-04-21T13:53:31.132Z,21.66
2023-04-21T13:55:59.263Z,21.68
2023-04-21T13:58:25.828Z,21.52
2023-04-21T14:00:52.364Z,21.33
2023-04-21T14:03:19.477Z,20.92
2023-04-21T14:05:46.201Z,20.82
2023-04-21T14:08:12.874Z,20.87
2023-04-21T14:10:39.421Z,20.96
2023-04-21T14:13:05.957Z,20.90
2023-04-21T14:15:32.525Z,20.85
2023-04-21T14:18:00.507Z,20.57
2023-04-21T14:20:27.471Z,20.49
2023-04-21T14:22:54.020Z,20.47
2023-04-21T14:25:20.587Z,20.59
2023-04-21T14:27:47.140Z,20.78
2023-04-21T14:30:14.564Z,20.85
2023-04-21T14:32:47.358Z,20.80
2023-04-21T14:35:14.529Z,21.03
2023-04-21T14:37:41.623Z,21.23
2023-04-21T14:40:09.703Z,21.00
2023-04-21T14:42:36.333Z,20.98
2023-04-21T14:45:02.936Z,20.81
2023-04-21T14:47:29.553Z,20.68
2023-04-21T14:49:56.256Z,20.62
2023-04-21T14:52:25.728Z,20.35
2023-04-21T14:54:52.765Z,20.39
2023-04-21T14:57:21.729Z,20.35
2023-04-21T14:59:50.517Z,20.02
2023-04-21T15:02:18.044Z,19.81
2023-04-21T15:04:45.019Z,19.77
2023-04-21T15:07:11.713Z,19.73
2023-04-21T15:09:39.450Z,19.62
2023-04-21T15:12:06.314Z,19.57
2023-04-21T15:14:33.139Z,19.43
2023-04-21T15:16:59.752Z,19.22
2023-04-21T15:19:26.354Z,19.16
2023-04-21T15:21:53.027Z,19.17
2023-04-21T15:24:19.744Z,19.15
2023-04-21T15:26:46.369Z,19.11
2023-04-21T15:29:12.986Z,19.04
2023-04-21T15:31:40.234Z,19.08
2023-04-21T15:34:07.119Z,19.14
2023-04-21T15:36:33.712Z,19.08
2023-04-21T15:39:00.306Z,18.98
2023-04-21T15:41:29.467Z,18.95
2023-04-21T15:43:56.153Z,18.99
2023-04-21T15:46:22.935Z,19.03
2023-04-21T15:48:49.600Z,19.09
2023-04-21T15:51:16.261Z,19.10
2023-04-21T15:53:47.844Z,19.11
2023-04-21T15:56:16.786Z,19.16
2023-04-21T15:58:44.446Z,19.15
2023-04-21T16:01:12.808Z,19.14
2023-04-21T16:03:40.260Z,19.08
2023-04-21T16:06:07.565Z,19.05
2023-04-21T16:08:34.391Z,19.00
2023-04-21T16:11:01.426Z,18.91
2023-04-21T16:13:28.032Z,18.83
2023-04-21T16:15:54.652Z,18.84
2023-04-21T16:18:21.565Z,18.84
2023-04-21T16:20:48.330Z,18.78
2023-04-21T16:23:15.702Z,18.77
2023-04-21T16:25:43.088Z,18.69
2023-04-21T16:28:11.367Z,18.63
2023-04-21T16:30:43.348Z,18.63
2023-04-21T16:33:11.533Z,18.60
2023-04-21T16:35:39.265Z,18.59
2023-04-21T16:38:06.371Z,18.54
2023-04-21T16:40:33.245Z,18.49
2023-04-21T16:42:59.798Z,18.45
2023-04-21T16:45:28.753Z,18.43
2023-04-21T16:47:55.515Z,18.43
2023-04-21T16:50:22.198Z,18.38
2023-04-21T16:52:48.870Z,18.37
2023-04-21T16:55:15.470Z,18.31
2023-04-21T16:57:42.016Z,18.30
2023-04-21T17:00:09.569Z,18.25
2023-04-21T17:02:36.351Z,18.21
2023-04-21T17:05:04.078Z,18.18
2023-04-21T17:07:32.002Z,18.12
2023-04-21T17:09:58.676Z,18.10
2023-04-21T17:12:25.250Z,18.04
2023-04-21T17:14:51.945Z,17.96
2023-04-21T17:17:18.702Z,17.90
2023-04-21T17:19:45.321Z,17.83
2023-04-21T17:22:11.904Z,17.76
2023-04-21T17:24:51.776Z,17.69
2023-04-21T17:27:19.594Z,17.61
2023-04-21T17:29:46.970Z,17.53
2023-04-21T17:32:13.996Z,17.43
2023-04-21T17:34:40.768Z,17.33
2023-04-21T17:37:07.314Z,17.24
2023-04-21T17:39:33.847Z,17.17
2023-04-21T17:42:02.729Z,17.07
2023-04-21T17:44:29.510Z,16.98
2023-04-21T17:46:56.672Z,16.90
2023-04-21T17:49:24.779Z,16.79
2023-04-21T17:51:52.058Z,16.69
2023-04-21T17:54:18.647Z,16.61
2023-04-21T17:56:48.960Z,16.49
2023-04-21T17:59:16.480Z,16.41
2023-04-21T18:01:43.419Z,16.30
2023-04-21T18:04:10.232Z,16.18
2023-04-21T18:06:37.069Z,16.07
2023-04-21T18:09:06.636Z,15.96
2023-04-21T18:11:33.270Z,15.86
2023-04-21T18:14:00.014Z,15.76
2023-04-21T18:16:26.705Z,15.67
2023-04-21T18:18:53.560Z,15.57
2023-04-21T18:21:20.851Z,15.51
2023-04-21T18:23:47.428Z,15.46
2023-04-21T18:26:14.010Z,15.38
2023-04-21T18:28:41.775Z,15.32
2023-04-21T18:31:08.910Z,15.25
2023-04-21T18:33:35.519Z,15.21
2023-04-21T18:36:02.036Z,15.15
2023-04-21T18:38:28.513Z,15.11
2023-04-21T18:40:56.199Z,15.04
2023-04-21T18:43:22.793Z,14.99
2023-04-21T18:45:49.299Z,14.91
2023-04-21T18:48:15.828Z,14.85
2023-04-21T18:50:42.554Z,14.82
2023-04-21T18:53:09.345Z,14.74
2023-04-21T18:55:37.397Z,14.69
2023-04-21T18:58:04.286Z,14.63
2023-04-21T19:00:32.452Z,14.58
2023-04-21T19:03:02.654Z,14.52
2023-04-21T19:05:31.453Z,14.48
2023-04-21T19:07:58.301Z,14.45
2023-04-21T19:10:24.785Z,14.37
2023-04-21T19:12:51.417Z,14.34
2023-04-21T19:15:18.284Z,14.26
2023-04-21T19:17:45.405Z,14.20
2023-04-21T19:20:12.639Z,14.15
2023-04-21T19:22:39.272Z,14.15
2023-04-21T19:25:07.070Z,14.12
2023-04-21T19:27:33.658Z,14.08
2023-04-21T19:30:01.074Z,14.03
2023-04-21T19:32:28.263Z,13.93
2023-04-21T19:34:54.943Z,13.84
2023-04-21T19:37:21.490Z,13.84
2023-04-21T19:39:48.168Z,13.79
2023-04-21T19:42:14.762Z,13.75
2023-04-21T19:44:41.687Z,13.71
2023-04-21T19:47:08.259Z,13.67
2023-04-21T19:49:35.688Z,13.63
2023-04-21T19:52:04.958Z,13.55
2023-04-21T19:54:32.171Z,13.43
2023-04-21T19:56:58.706Z,13.35
2023-04-21T19:59:25.315Z,13.28
2023-04-21T20:01:51.930Z,13.26
2023-04-21T20:04:18.638Z,13.18
2023-04-21T20:06:45.819Z,13.14
2023-04-21T20:09:12.841Z,13.10
2023-04-21T20:11:39.476Z,13.05
2023-04-21T20:14:07.135Z,13.01
2023-04-21T20:16:34.352Z,12.95
2023-04-21T20:19:01.916Z,12.88
2023-04-21T20:21:28.839Z,12.85
2023-04-21T20:23:55.678Z,12.80
2023-04-21T20:26:22.948Z,12.77
2023-04-21T20:28:49.513Z,12.72
2023-04-21T20:31:16.591Z,12.71
2023-04-21T20:33:43.138Z,12.68
2023-04-21T20:36:09.653Z,12.65
2023-04-21T20:38:36.367Z,12.64
2023-04-21T20:41:03.340Z,12.58
2023-04-21T20:43:33.096Z,12.50
2023-04-21T20:46:01.176Z,12.42
2023-04-21T20:48:27.828Z,12.34
2023-04-21T20:50:54.569Z,12.29
2023-04-21T20:53:21.219Z,12.26
2023-04-21T20:55:48.215Z,12.18
2023-04-21T20:58:14.754Z,12.11
2023-04-21T21:00:41.507Z,12.05
2023-04-21T21:03:10.240Z,11.95
2023-04-21T21:05:37.856Z,11.86
2023-04-21T21:08:05.289Z,11.82
2023-04-21T21:10:31.798Z,11.76
2023-04-21T21:12:59.690Z,11.74
2023-04-21T21:15:32.630Z,11.68
2023-04-21T21:17:59.181Z,11.66
2023-04-21T21:20:26.049Z,11.56
2023-04-21T21:22:52.614Z,11.43
2023-04-21T21:25:19.194Z,11.36
2023-04-21T21:27:46.117Z,11.26
2023-04-21T21:30:13.070Z,11.20
2023-04-21T21:32:39.944Z,11.14
2023-04-21T21:35:09.357Z,11.04
2023-04-21T21:37:36.898Z,11.07
2023-04-21T21:40:03.671Z,11.06
2023-04-21T21:42:30.223Z,11.10
2023-04-21T21:44:56.760Z,11.08
2023-04-21T21:47:23.283Z,11.07
2023-04-21T21:49:55.641Z,11.07
2023-04-21T21:52:22.266Z,10.99
2023-04-21T21:54:48.813Z,10.98
2023-04-21T21:57:15.844Z,10.97
2023-04-21T21:59:42.505Z,10.92
2023-04-21T22:02:09.122Z,10.90
2023-04-21T22:04:35.954Z,10.83
2023-04-21T22:07:03.951Z,10.82
2023-04-21T22:09:30.901Z,10.74
2023-04-21T22:11:57.443Z,10.74
2023-04-21T22:14:24.347Z,10.72
2023-04-21T22:16:53.100Z,10.70
2023-04-21T22:19:20.260Z,10.62
2023-04-21T22:21:46.916Z,10.57
2023-04-21T22:24:13.600Z,10.53
2023-04-21T22:26:40.404Z,10.51
2023-04-21T22:29:07.054Z,10.45
2023-04-21T22:31:33.883Z,10.40
2023-04-21T22:34:00.680Z,10.39
2023-04-21T22:36:27.487Z,10.37
2023-04-21T22:38:54.025Z,10.36
2023-04-21T22:41:21.164Z,10.34
2023-04-21T22:43:47.822Z,10.27
2023-04-21T22:46:14.607Z,10.25
2023-04-21T22:48:41.372Z,10.22
2023-04-21T22:51:07.866Z,10.23
2023-04-21T22:53:34.516Z,10.20
2023-04-21T22:56:01.093Z,10.19
2023-04-21T22:58:27.618Z,10.18
2023-04-21T23:00:54.286Z,10.08
2023-04-21T23:03:22.002Z,9.97
2023-04-21T23:05:48.662Z,9.85
2023-04-21T23:08:15.166Z,9.79
2023-04-21T23:10:41.737Z,9.69
2023-04-21T23:13:08.287Z,9.48
2023-04-21T23:15:34.878Z,9.30
2023-04-21T23:18:01.454Z,9.13
2023-04-21T23:20:28.124Z,9.02
2023-04-21T23:22:54.698Z,8.97
2023-04-21T23:25:21.687Z,8.96
2023-04-21T23:27:48.249Z,8.89
2023-04-21T23:30:16.227Z,8.89
2023-04-21T23:32:43.688Z,8.83
2023-04-21T23:35:11.048Z,8.79
2023-04-21T23:37:37.621Z,8.74
2023-04-21T23:40:08.968Z,8.63
2023-04-21T23:42:38.512Z,8.57
2023-04-21T23:45:06.431Z,8.48
2023-04-21T23:47:33.379Z,8.43
2023-04-21T23:50:00.248Z,8.43
2023-04-21T23:52:26.999Z,8.40
2023-04-21T23:54:53.640Z,8.33
2023-04-21T23:57:20.162Z,8.27
2023-04-21T23:59:48.210Z,8.19
